sensor_id;sensor_type;location;lat;lon;timestamp;P1;durP1;ratioP1;P2;durP2;ratioP2
67749;SDS011;54550;48.838;8.828;2023-02-18T00:00:07;1.20;;;1.10;;
67749;SDS011;54550;48.838;8.828;2023-02-18T00:02:35;4.43;;;1.50;;
67749;SDS011;54550;48.838;8.828;2023-02-18T00:05:01;1.97;;;1.10;;
67749;SDS011;54550;48.838;8.828;2023-02-18T00:07:27;2.37;;;1.23;;
67749;SDS011;54550;48.838;8.828;2023-02-18T00:09:53;1.30;;;1.20;;
67749;SDS011;54550;48.838;8.828;2023-02-18T00:12:18;4.10;;;1.50;;
67749;SDS011;54550;48.838;8.828;2023-02-18T00:14:44;1.60;;;1.50;;
67749;SDS011;54550;48.838;8.828;2023-02-18T00:17:09;2.60;;;1.43;;
67749;SDS011;54550;48.838;8.828;2023-02-18T00:19:35;1.50;;;1.40;;
67749;SDS011;54550;48.838;8.828;2023-02-18T00:22:00;2.30;;;1.30;;
67749;SDS011;54550;48.838;8.828;2023-02-18T00:24:26;7.63;;;1.40;;
67749;SDS011;54550;48.838;8.828;2023-02-18T00:26:51;1.93;;;1.10;;
67749;SDS011;54550;48.838;8.828;2023-02-18T00:29:18;2.37;;;1.30;;
67749;SDS011;54550;48.838;8.828;2023-02-18T00:31:44;1.87;;;1.70;;
67749;SDS011;54550;48.838;8.828;2023-02-18T00:34:10;1.60;;;1.50;;
67749;SDS011;54550;48.838;8.828;2023-02-18T00:36:36;1.33;;;1.20;;
67749;SDS011;54550;48.838;8.828;2023-02-18T00:39:03;1.90;;;1.67;;
67749;SDS011;54550;48.838;8.828;2023-02-18T00:41:31;1.47;;;1.37;;
67749;SDS011;54550;48.838;8.828;2023-02-18T00:43:57;2.70;;;2.07;;
67749;SDS011;54550;48.838;8.828;2023-02-18T00:46:23;1.97;;;1.53;;
67749;SDS011;54550;48.838;8.828;2023-02-18T00:48:49;2.43;;;1.40;;
67749;SDS011;54550;48.838;8.828;2023-02-18T00:51:15;7.93;;;2.07;;
67749;SDS011;54550;48.838;8.828;2023-02-18T00:53:40;2.50;;;2.00;;
67749;SDS011;54550;48.838;8.828;2023-02-18T00:56:06;3.93;;;2.10;;
67749;SDS011;54550;48.838;8.828;2023-02-18T00:58:32;3.10;;;1.57;;
67749;SDS011;54550;48.838;8.828;2023-02-18T01:00:59;4.27;;;2.20;;
67749;SDS011;54550;48.838;8.828;2023-02-18T01:03:24;1.70;;;1.60;;
67749;SDS011;54550;48.838;8.828;2023-02-18T01:05:50;1.53;;;1.43;;
67749;SDS011;54550;48.838;8.828;2023-02-18T01:08:16;2.00;;;1.90;;
67749;SDS011;54550;48.838;8.828;2023-02-18T01:10:44;2.73;;;1.63;;
67749;SDS011;54550;48.838;8.828;2023-02-18T01:13:11;3.80;;;2.33;;
67749;SDS011;54550;48.838;8.828;2023-02-18T01:15:38;2.70;;;2.23;;
67749;SDS011;54550;48.838;8.828;2023-02-18T01:18:05;2.00;;;1.70;;
67749;SDS011;54550;48.838;8.828;2023-02-18T01:20:32;4.10;;;2.67;;
67749;SDS011;54550;48.838;8.828;2023-02-18T01:22:58;3.30;;;1.90;;
67749;SDS011;54550;48.838;8.828;2023-02-18T01:25:23;2.20;;;2.00;;
67749;SDS011;54550;48.838;8.828;2023-02-18T01:27:49;2.40;;;2.10;;
67749;SDS011;54550;48.838;8.828;2023-02-18T01:30:15;2.47;;;2.27;;
67749;SDS011;54550;48.838;8.828;2023-02-18T01:32:41;2.20;;;2.00;;
67749;SDS011;54550;48.838;8.828;2023-02-18T01:35:09;7.20;;;1.90;;
67749;SDS011;54550;48.838;8.828;2023-02-18T01:37:36;3.80;;;2.30;;
67749;SDS011;54550;48.838;8.828;2023-02-18T01:40:02;2.67;;;2.43;;
67749;SDS011;54550;48.838;8.828;2023-02-18T01:42:29;5.67;;;2.30;;
67749;SDS011;54550;48.838;8.828;2023-02-18T01:45:28;3.10;;;2.47;;
67749;SDS011;54550;48.838;8.828;2023-02-18T01:47:59;1.80;;;1.70;;
67749;SDS011;54550;48.838;8.828;2023-02-18T01:50:49;2.20;;;2.00;;
67749;SDS011;54550;48.838;8.828;2023-02-18T01:53:20;5.80;;;2.50;;
67749;SDS011;54550;48.838;8.828;2023-02-18T01:55:50;2.33;;;1.97;;
67749;SDS011;54550;48.838;8.828;2023-02-18T01:58:16;2.47;;;2.27;;
67749;SDS011;54550;48.838;8.828;2023-02-18T02:00:42;3.87;;;2.10;;
67749;SDS011;54550;48.838;8.828;2023-02-18T02:03:08;2.03;;;1.90;;
67749;SDS011;54550;48.838;8.828;2023-02-18T02:05:34;2.80;;;2.50;;
67749;SDS011;54550;48.838;8.828;2023-02-18T02:07:59;3.13;;;2.10;;
67749;SDS011;54550;48.838;8.828;2023-02-18T02:10:28;2.80;;;1.90;;
67749;SDS011;54550;48.838;8.828;2023-02-18T02:13:25;2.00;;;1.90;;
67749;SDS011;54550;48.838;8.828;2023-02-18T02:16:21;2.20;;;2.00;;
67749;SDS011;54550;48.838;8.828;2023-02-18T02:19:18;3.30;;;2.37;;
67749;SDS011;54550;48.838;8.828;2023-02-18T02:24:49;7.07;;;3.10;;
67749;SDS011;54550;48.838;8.828;2023-02-18T02:27:33;3.53;;;2.53;;
67749;SDS011;54550;48.838;8.828;2023-02-18T02:37:50;2.30;;;2.10;;
67749;SDS011;54550;48.838;8.828;2023-02-18T02:46:20;2.10;;;1.90;;
67749;SDS011;54550;48.838;8.828;2023-02-18T02:49:02;2.13;;;1.97;;
67749;SDS011;54550;48.838;8.828;2023-02-18T02:51:45;1.80;;;1.70;;
67749;SDS011;54550;48.838;8.828;2023-02-18T02:54:22;3.40;;;2.63;;
67749;SDS011;54550;48.838;8.828;2023-02-18T02:56:49;2.10;;;2.00;;
67749;SDS011;54550;48.838;8.828;2023-02-18T02:59:15;2.80;;;2.00;;
67749;SDS011;54550;48.838;8.828;2023-02-18T03:15:36;3.87;;;1.87;;
67749;SDS011;54550;48.838;8.828;2023-02-18T03:20:54;3.47;;;2.17;;
67749;SDS011;54550;48.838;8.828;2023-02-18T03:23:34;5.10;;;2.30;;
67749;SDS011;54550;48.838;8.828;2023-02-18T03:26:05;3.13;;;2.83;;
67749;SDS011;54550;48.838;8.828;2023-02-18T03:28:33;2.73;;;2.50;;
67749;SDS011;54550;48.838;8.828;2023-02-18T03:31:07;2.43;;;2.23;;
67749;SDS011;54550;48.838;8.828;2023-02-18T03:33:38;3.37;;;2.33;;
67749;SDS011;54550;48.838;8.828;2023-02-18T03:36:18;3.03;;;2.80;;
67749;SDS011;54550;48.838;8.828;2023-02-18T03:38:55;2.40;;;2.20;;
67749;SDS011;54550;48.838;8.828;2023-02-18T03:41:25;3.63;;;2.30;;
67749;SDS011;54550;48.838;8.828;2023-02-18T03:43:51;2.70;;;2.47;;
67749;SDS011;54550;48.838;8.828;2023-02-18T03:46:20;1.60;;;1.50;;
67749;SDS011;54550;48.838;8.828;2023-02-18T03:48:46;6.73;;;2.27;;
67749;SDS011;54550;48.838;8.828;2023-02-18T03:51:11;2.80;;;2.27;;
67749;SDS011;54550;48.838;8.828;2023-02-18T03:53:37;2.37;;;2.17;;
67749;SDS011;54550;48.838;8.828;2023-02-18T03:56:03;2.70;;;2.50;;
67749;SDS011;54550;48.838;8.828;2023-02-18T03:58:29;3.07;;;2.30;;
67749;SDS011;54550;48.838;8.828;2023-02-18T04:00:54;2.80;;;2.00;;
67749;SDS011;54550;48.838;8.828;2023-02-18T04:03:20;3.93;;;2.57;;
67749;SDS011;54550;48.838;8.828;2023-02-18T04:05:45;2.20;;;2.00;;
67749;SDS011;54550;48.838;8.828;2023-02-18T04:08:12;2.40;;;1.90;;
67749;SDS011;54550;48.838;8.828;2023-02-18T04:10:37;10.50;;;1.77;;
67749;SDS011;54550;48.838;8.828;2023-02-18T04:13:03;3.07;;;2.50;;
67749;SDS011;54550;48.838;8.828;2023-02-18T04:15:29;2.50;;;2.30;;
67749;SDS011;54550;48.838;8.828;2023-02-18T04:17:55;2.27;;;1.97;;
67749;SDS011;54550;48.838;8.828;2023-02-18T04:20:20;3.80;;;1.73;;
67749;SDS011;54550;48.838;8.828;2023-02-18T04:22:46;2.90;;;2.20;;
67749;SDS011;54550;48.838;8.828;2023-02-18T04:25:12;2.53;;;2.13;;
67749;SDS011;54550;48.838;8.828;2023-02-18T04:27:38;3.50;;;2.70;;
67749;SDS011;54550;48.838;8.828;2023-02-18T04:30:04;6.87;;;3.30;;
67749;SDS011;54550;48.838;8.828;2023-02-18T04:32:30;2.23;;;2.00;;
67749;SDS011;54550;48.838;8.828;2023-02-18T04:34:55;2.27;;;2.07;;
67749;SDS011;54550;48.838;8.828;2023-02-18T04:37:21;1.90;;;1.67;;
67749;SDS011;54550;48.838;8.828;2023-02-18T04:39:46;3.80;;;2.50;;
67749;SDS011;54550;48.838;8.828;2023-02-18T04:42:12;3.20;;;1.70;;
67749;SDS011;54550;48.838;8.828;2023-02-18T04:44:38;2.17;;;1.90;;
67749;SDS011;54550;48.838;8.828;2023-02-18T04:47:04;2.20;;;2.00;;
67749;SDS011;54550;48.838;8.828;2023-02-18T04:49:30;2.80;;;2.17;;
67749;SDS011;54550;48.838;8.828;2023-02-18T04:51:56;3.40;;;2.50;;
67749;SDS011;54550;48.838;8.828;2023-02-18T04:54:22;3.63;;;2.40;;
67749;SDS011;54550;48.838;8.828;2023-02-18T04:56:47;2.17;;;1.87;;
67749;SDS011;54550;48.838;8.828;2023-02-18T04:59:13;2.10;;;2.00;;
67749;SDS011;54550;48.838;8.828;2023-02-18T05:01:39;4.60;;;3.53;;
67749;SDS011;54550;48.838;8.828;2023-02-18T05:04:04;4.50;;;2.13;;
67749;SDS011;54550;48.838;8.828;2023-02-18T05:06:30;2.90;;;2.70;;
67749;SDS011;54550;48.838;8.828;2023-02-18T05:08:56;4.07;;;3.60;;
67749;SDS011;54550;48.838;8.828;2023-02-18T05:11:21;5.30;;;2.03;;
67749;SDS011;54550;48.838;8.828;2023-02-18T05:13:47;12.57;;;1.83;;
67749;SDS011;54550;48.838;8.828;2023-02-18T05:16:12;6.03;;;2.70;;
67749;SDS011;54550;48.838;8.828;2023-02-18T05:18:38;4.60;;;2.10;;
67749;SDS011;54550;48.838;8.828;2023-02-18T05:21:04;37.10;;;6.17;;
67749;SDS011;54550;48.838;8.828;2023-02-18T05:23:30;31.17;;;5.10;;
67749;SDS011;54550;48.838;8.828;2023-02-18T05:25:56;17.00;;;3.00;;
67749;SDS011;54550;48.838;8.828;2023-02-18T05:28:21;5.00;;;2.73;;
67749;SDS011;54550;48.838;8.828;2023-02-18T05:30:47;2.37;;;2.17;;
67749;SDS011;54550;48.838;8.828;2023-02-18T05:33:13;2.60;;;2.40;;
67749;SDS011;54550;48.838;8.828;2023-02-18T05:35:38;4.23;;;2.83;;
67749;SDS011;54550;48.838;8.828;2023-02-18T05:38:04;3.10;;;2.17;;
67749;SDS011;54550;48.838;8.828;2023-02-18T05:40:29;5.17;;;2.23;;
67749;SDS011;54550;48.838;8.828;2023-02-18T05:42:55;8.43;;;3.10;;
67749;SDS011;54550;48.838;8.828;2023-02-18T05:45:21;11.73;;;2.60;;
67749;SDS011;54550;48.838;8.828;2023-02-18T05:47:46;4.83;;;2.30;;
67749;SDS011;54550;48.838;8.828;2023-02-18T05:50:12;9.10;;;2.17;;
67749;SDS011;54550;48.838;8.828;2023-02-18T05:52:37;5.63;;;2.90;;
67749;SDS011;54550;48.838;8.828;2023-02-18T05:55:03;10.13;;;2.40;;
67749;SDS011;54550;48.838;8.828;2023-02-18T05:57:29;4.30;;;1.63;;
67749;SDS011;54550;48.838;8.828;2023-02-18T05:59:55;7.20;;;2.30;;
67749;SDS011;54550;48.838;8.828;2023-02-18T06:02:20;2.17;;;1.80;;
67749;SDS011;54550;48.838;8.828;2023-02-18T06:04:46;3.03;;;2.20;;
67749;SDS011;54550;48.838;8.828;2023-02-18T06:07:11;3.10;;;1.83;;
67749;SDS011;54550;48.838;8.828;2023-02-18T06:09:37;2.80;;;2.00;;
67749;SDS011;54550;48.838;8.828;2023-02-18T06:12:03;3.37;;;1.83;;
67749;SDS011;54550;48.838;8.828;2023-02-18T06:14:28;2.27;;;2.07;;
67749;SDS011;54550;48.838;8.828;2023-02-18T06:16:54;2.27;;;1.97;;
67749;SDS011;54550;48.838;8.828;2023-02-18T06:19:19;3.80;;;2.40;;
67749;SDS011;54550;48.838;8.828;2023-02-18T06:21:45;1.97;;;1.77;;
67749;SDS011;54550;48.838;8.828;2023-02-18T06:24:11;2.77;;;1.90;;
67749;SDS011;54550;48.838;8.828;2023-02-18T06:26:36;3.10;;;2.00;;
67749;SDS011;54550;48.838;8.828;2023-02-18T06:29:02;2.13;;;1.93;;
67749;SDS011;54550;48.838;8.828;2023-02-18T06:31:28;4.20;;;2.60;;
67749;SDS011;54550;48.838;8.828;2023-02-18T06:33:53;3.15;;;2.85;;
67749;SDS011;54550;48.838;8.828;2023-02-18T06:36:19;3.70;;;2.40;;
67749;SDS011;54550;48.838;8.828;2023-02-18T06:38:44;3.00;;;1.93;;
67749;SDS011;54550;48.838;8.828;2023-02-18T06:41:11;2.70;;;2.10;;
67749;SDS011;54550;48.838;8.828;2023-02-18T06:43:37;5.00;;;2.23;;
67749;SDS011;54550;48.838;8.828;2023-02-18T06:46:03;3.57;;;2.07;;
67749;SDS011;54550;48.838;8.828;2023-02-18T06:48:30;4.67;;;2.60;;
67749;SDS011;54550;48.838;8.828;2023-02-18T06:50:56;1.70;;;1.57;;
67749;SDS011;54550;48.838;8.828;2023-02-18T06:53:22;4.40;;;1.97;;
67749;SDS011;54550;48.838;8.828;2023-02-18T06:55:47;2.50;;;2.03;;
67749;SDS011;54550;48.838;8.828;2023-02-18T06:58:13;2.13;;;1.93;;
67749;SDS011;54550;48.838;8.828;2023-02-18T07:00:39;3.63;;;2.20;;
67749;SDS011;54550;48.838;8.828;2023-02-18T07:03:05;6.60;;;2.50;;
67749;SDS011;54550;48.838;8.828;2023-02-18T07:05:31;2.97;;;2.67;;
67749;SDS011;54550;48.838;8.828;2023-02-18T07:07:57;3.40;;;2.50;;
67749;SDS011;54550;48.838;8.828;2023-02-18T07:10:23;3.93;;;2.00;;
67749;SDS011;54550;48.838;8.828;2023-02-18T07:12:48;2.90;;;2.60;;
67749;SDS011;54550;48.838;8.828;2023-02-18T07:15:14;4.60;;;2.00;;
67749;SDS011;54550;48.838;8.828;2023-02-18T07:17:40;4.90;;;2.33;;
67749;SDS011;54550;48.838;8.828;2023-02-18T07:20:06;3.07;;;2.10;;
67749;SDS011;54550;48.838;8.828;2023-02-18T07:22:32;3.03;;;2.03;;
67749;SDS011;54550;48.838;8.828;2023-02-18T07:24:58;1.87;;;1.77;;
67749;SDS011;54550;48.838;8.828;2023-02-18T07:27:24;2.60;;;1.80;;
67749;SDS011;54550;48.838;8.828;2023-02-18T07:29:50;2.60;;;2.00;;
67749;SDS011;54550;48.838;8.828;2023-02-18T07:32:16;4.97;;;3.00;;
67749;SDS011;54550;48.838;8.828;2023-02-18T07:34:43;2.10;;;2.00;;
67749;SDS011;54550;48.838;8.828;2023-02-18T07:37:08;7.60;;;1.90;;
67749;SDS011;54550;48.838;8.828;2023-02-18T07:39:38;2.37;;;2.17;;
67749;SDS011;54550;48.838;8.828;2023-02-18T07:42:05;3.00;;;1.93;;
67749;SDS011;54550;48.838;8.828;2023-02-18T07:44:31;3.10;;;2.20;;
67749;SDS011;54550;48.838;8.828;2023-02-18T07:46:56;2.40;;;2.00;;
67749;SDS011;54550;48.838;8.828;2023-02-18T07:49:22;2.30;;;2.00;;
67749;SDS011;54550;48.838;8.828;2023-02-18T07:51:48;2.87;;;2.50;;
67749;SDS011;54550;48.838;8.828;2023-02-18T07:54:14;3.50;;;2.20;;
67749;SDS011;54550;48.838;8.828;2023-02-18T07:56:40;2.30;;;2.10;;
67749;SDS011;54550;48.838;8.828;2023-02-18T07:59:07;3.40;;;2.53;;
67749;SDS011;54550;48.838;8.828;2023-02-18T08:01:32;3.23;;;2.10;;
67749;SDS011;54550;48.838;8.828;2023-02-18T08:03:58;2.50;;;1.97;;
67749;SDS011;54550;48.838;8.828;2023-02-18T08:06:25;4.40;;;2.60;;
67749;SDS011;54550;48.838;8.828;2023-02-18T08:08:54;4.33;;;2.53;;
67749;SDS011;54550;48.838;8.828;2023-02-18T08:11:20;2.77;;;2.40;;
67749;SDS011;54550;48.838;8.828;2023-02-18T08:13:46;4.73;;;2.60;;
67749;SDS011;54550;48.838;8.828;2023-02-18T08:16:12;2.23;;;2.00;;
67749;SDS011;54550;48.838;8.828;2023-02-18T08:18:39;2.60;;;1.97;;
67749;SDS011;54550;48.838;8.828;2023-02-18T08:21:04;2.43;;;2.10;;
67749;SDS011;54550;48.838;8.828;2023-02-18T08:23:30;2.63;;;2.17;;
67749;SDS011;54550;48.838;8.828;2023-02-18T08:25:56;2.30;;;2.10;;
67749;SDS011;54550;48.838;8.828;2023-02-18T08:28:21;2.90;;;1.73;;
67749;SDS011;54550;48.838;8.828;2023-02-18T08:30:48;3.27;;;2.47;;
67749;SDS011;54550;48.838;8.828;2023-02-18T08:33:16;3.23;;;1.70;;
67749;SDS011;54550;48.838;8.828;2023-02-18T08:35:43;2.60;;;1.80;;
67749;SDS011;54550;48.838;8.828;2023-02-18T08:38:09;2.37;;;1.87;;
67749;SDS011;54550;48.838;8.828;2023-02-18T08:40:34;1.63;;;1.50;;
67749;SDS011;54550;48.838;8.828;2023-02-18T08:43:00;2.07;;;1.60;;
67749;SDS011;54550;48.838;8.828;2023-02-18T08:45:25;3.17;;;1.83;;
67749;SDS011;54550;48.838;8.828;2023-02-18T08:47:51;2.07;;;1.87;;
67749;SDS011;54550;48.838;8.828;2023-02-18T08:50:17;1.83;;;1.40;;
67749;SDS011;54550;48.838;8.828;2023-02-18T08:52:44;2.33;;;1.67;;
67749;SDS011;54550;48.838;8.828;2023-02-18T08:55:10;1.87;;;1.67;;
67749;SDS011;54550;48.838;8.828;2023-02-18T08:57:36;1.43;;;1.33;;
67749;SDS011;54550;48.838;8.828;2023-02-18T09:00:02;1.70;;;1.60;;
67749;SDS011;54550;48.838;8.828;2023-02-18T09:02:27;2.17;;;1.50;;
67749;SDS011;54550;48.838;8.828;2023-02-18T09:04:53;1.20;;;1.10;;
67749;SDS011;54550;48.838;8.828;2023-02-18T09:07:18;4.10;;;1.57;;
67749;SDS011;54550;48.838;8.828;2023-02-18T09:09:44;1.50;;;1.23;;
67749;SDS011;54550;48.838;8.828;2023-02-18T09:12:10;1.40;;;1.30;;
67749;SDS011;54550;48.838;8.828;2023-02-18T09:14:35;1.43;;;1.17;;
67749;SDS011;54550;48.838;8.828;2023-02-18T09:17:01;1.73;;;1.33;;
67749;SDS011;54550;48.838;8.828;2023-02-18T09:19:26;3.10;;;1.20;;
67749;SDS011;54550;48.838;8.828;2023-02-18T09:21:52;1.40;;;1.23;;
67749;SDS011;54550;48.838;8.828;2023-02-18T09:24:18;2.63;;;1.80;;
67749;SDS011;54550;48.838;8.828;2023-02-18T09:26:44;1.63;;;1.37;;
67749;SDS011;54550;48.838;8.828;2023-02-18T09:29:10;1.23;;;1.13;;
67749;SDS011;54550;48.838;8.828;2023-02-18T09:31:36;1.70;;;1.43;;
67749;SDS011;54550;48.838;8.828;2023-02-18T09:34:03;1.87;;;1.20;;
67749;SDS011;54550;48.838;8.828;2023-02-18T09:36:30;3.00;;;1.17;;
67749;SDS011;54550;48.838;8.828;2023-02-18T09:38:56;1.50;;;1.27;;
67749;SDS011;54550;48.838;8.828;2023-02-18T09:43:48;1.70;;;1.07;;
67749;SDS011;54550;48.838;8.828;2023-02-18T09:48:45;1.97;;;1.17;;
67749;SDS011;54550;48.838;8.828;2023-02-18T09:51:13;1.70;;;1.20;;
67749;SDS011;54550;48.838;8.828;2023-02-18T09:53:40;1.13;;;0.97;;
67749;SDS011;54550;48.838;8.828;2023-02-18T09:56:18;3.90;;;1.33;;
67749;SDS011;54550;48.838;8.828;2023-02-18T09:58:47;1.97;;;1.87;;
67749;SDS011;54550;48.838;8.828;2023-02-18T10:01:31;1.40;;;1.30;;
67749;SDS011;54550;48.838;8.828;2023-02-18T10:06:41;1.83;;;1.47;;
67749;SDS011;54550;48.838;8.828;2023-02-18T10:09:18;1.97;;;1.53;;
67749;SDS011;54550;48.838;8.828;2023-02-18T10:11:50;1.90;;;1.40;;
67749;SDS011;54550;48.838;8.828;2023-02-18T10:14:19;2.10;;;0.87;;
67749;SDS011;54550;48.838;8.828;2023-02-18T10:16:45;1.73;;;1.30;;
67749;SDS011;54550;48.838;8.828;2023-02-18T10:19:33;2.03;;;0.97;;
67749;SDS011;54550;48.838;8.828;2023-02-18T10:22:03;1.60;;;1.17;;
67749;SDS011;54550;48.838;8.828;2023-02-18T10:24:41;1.40;;;1.30;;
67749;SDS011;54550;48.838;8.828;2023-02-18T10:27:15;1.17;;;1.00;;
67749;SDS011;54550;48.838;8.828;2023-02-18T10:29:48;1.13;;;1.03;;
67749;SDS011;54550;48.838;8.828;2023-02-18T10:32:21;3.30;;;0.90;;
67749;SDS011;54550;48.838;8.828;2023-02-18T10:34:59;1.00;;;0.70;;
67749;SDS011;54550;48.838;8.828;2023-02-18T10:48:23;1.57;;;1.23;;
67749;SDS011;54550;48.838;8.828;2023-02-18T10:51:13;1.40;;;0.83;;
67749;SDS011;54550;48.838;8.828;2023-02-18T10:53:43;5.43;;;0.90;;
67749;SDS011;54550;48.838;8.828;2023-02-18T10:59:39;3.03;;;1.33;;
67749;SDS011;54550;48.838;8.828;2023-02-18T11:02:00;1.17;;;0.60;;
67749;SDS011;54550;48.838;8.828;2023-02-18T11:04:36;1.63;;;1.13;;
67749;SDS011;54550;48.838;8.828;2023-02-18T11:07:05;2.93;;;1.13;;
67749;SDS011;54550;48.838;8.828;2023-02-18T11:09:55;1.60;;;1.00;;
67749;SDS011;54550;48.838;8.828;2023-02-18T11:12:43;8.20;;;1.17;;
67749;SDS011;54550;48.838;8.828;2023-02-18T11:17:49;1.27;;;1.07;;
67749;SDS011;54550;48.838;8.828;2023-02-18T11:25:30;1.53;;;1.20;;
67749;SDS011;54550;48.838;8.828;2023-02-18T11:28:01;1.87;;;1.30;;
67749;SDS011;54550;48.838;8.828;2023-02-18T11:30:54;5.57;;;1.60;;
67749;SDS011;54550;48.838;8.828;2023-02-18T11:33:33;9.90;;;1.43;;
67749;SDS011;54550;48.838;8.828;2023-02-18T11:36:16;1.60;;;1.10;;
67749;SDS011;54550;48.838;8.828;2023-02-18T11:38:43;3.23;;;1.27;;
67749;SDS011;54550;48.838;8.828;2023-02-18T11:41:17;1.73;;;1.20;;
67749;SDS011;54550;48.838;8.828;2023-02-18T11:43:49;1.67;;;1.50;;
67749;SDS011;54550;48.838;8.828;2023-02-18T11:46:18;1.30;;;1.10;;
67749;SDS011;54550;48.838;8.828;2023-02-18T11:48:47;2.33;;;1.50;;
67749;SDS011;54550;48.838;8.828;2023-02-18T11:51:17;1.80;;;1.23;;
67749;SDS011;54550;48.838;8.828;2023-02-18T11:56:41;1.70;;;1.23;;
67749;SDS011;54550;48.838;8.828;2023-02-18T11:59:19;1.90;;;1.23;;
67749;SDS011;54550;48.838;8.828;2023-02-18T12:01:46;1.23;;;1.13;;
67749;SDS011;54550;48.838;8.828;2023-02-18T12:04:19;2.00;;;1.33;;
67749;SDS011;54550;48.838;8.828;2023-02-18T12:06:52;1.97;;;1.50;;
67749;SDS011;54550;48.838;8.828;2023-02-18T12:09:37;2.13;;;1.27;;
67749;SDS011;54550;48.838;8.828;2023-02-18T12:12:10;1.83;;;1.30;;
67749;SDS011;54550;48.838;8.828;2023-02-18T12:14:37;7.03;;;1.17;;
67749;SDS011;54550;48.838;8.828;2023-02-18T12:25:19;2.87;;;1.20;;
67749;SDS011;54550;48.838;8.828;2023-02-18T12:33:26;2.40;;;1.97;;
67749;SDS011;54550;48.838;8.828;2023-02-18T12:36:09;1.60;;;1.50;;
67749;SDS011;54550;48.838;8.828;2023-02-18T12:38:53;1.80;;;1.40;;
67749;SDS011;54550;48.838;8.828;2023-02-18T12:44:20;2.60;;;1.47;;
67749;SDS011;54550;48.838;8.828;2023-02-18T12:49:51;5.07;;;2.00;;
67749;SDS011;54550;48.838;8.828;2023-02-18T12:52:43;1.70;;;1.60;;
67749;SDS011;54550;48.838;8.828;2023-02-18T12:55:30;2.60;;;1.80;;
67749;SDS011;54550;48.838;8.828;2023-02-18T13:03:58;3.43;;;1.63;;
67749;SDS011;54550;48.838;8.828;2023-02-18T13:07:04;2.13;;;1.17;;
67749;SDS011;54550;48.838;8.828;2023-02-18T13:17:53;3.20;;;2.20;;
67749;SDS011;54550;48.838;8.828;2023-02-18T13:20:23;1.50;;;1.37;;
67749;SDS011;54550;48.838;8.828;2023-02-18T13:22:54;2.60;;;1.83;;
67749;SDS011;54550;48.838;8.828;2023-02-18T13:25:21;3.00;;;1.50;;
67749;SDS011;54550;48.838;8.828;2023-02-18T13:30:26;2.60;;;1.80;;
67749;SDS011;54550;48.838;8.828;2023-02-18T13:33:07;2.50;;;1.87;;
67749;SDS011;54550;48.838;8.828;2023-02-18T13:36:01;2.33;;;1.67;;
67749;SDS011;54550;48.838;8.828;2023-02-18T13:38:53;3.40;;;2.27;;
67749;SDS011;54550;48.838;8.828;2023-02-18T13:41:26;2.50;;;1.70;;
67749;SDS011;54550;48.838;8.828;2023-02-18T13:43:52;2.67;;;2.00;;
67749;SDS011;54550;48.838;8.828;2023-02-18T13:46:18;2.20;;;1.40;;
67749;SDS011;54550;48.838;8.828;2023-02-18T13:48:49;2.57;;;1.27;;
67749;SDS011;54550;48.838;8.828;2023-02-18T13:53:59;4.10;;;2.27;;
67749;SDS011;54550;48.838;8.828;2023-02-18T13:56:29;1.87;;;1.60;;
67749;SDS011;54550;48.838;8.828;2023-02-18T14:01:54;1.70;;;1.60;;
67749;SDS011;54550;48.838;8.828;2023-02-18T14:09:59;3.23;;;1.87;;
67749;SDS011;54550;48.838;8.828;2023-02-18T14:12:59;1.50;;;1.40;;
67749;SDS011;54550;48.838;8.828;2023-02-18T14:18:19;2.43;;;2.23;;
67749;SDS011;54550;48.838;8.828;2023-02-18T14:20:48;2.70;;;2.20;;
67749;SDS011;54550;48.838;8.828;2023-02-18T14:25:51;5.90;;;2.40;;
67749;SDS011;54550;48.838;8.828;2023-02-18T14:31:02;2.20;;;1.63;;
67749;SDS011;54550;48.838;8.828;2023-02-18T14:33:41;2.90;;;2.23;;
67749;SDS011;54550;48.838;8.828;2023-02-18T14:47:19;2.53;;;1.90;;
67749;SDS011;54550;48.838;8.828;2023-02-18T14:49:53;3.97;;;2.00;;
67749;SDS011;54550;48.838;8.828;2023-02-18T14:54:57;1.93;;;1.73;;
67749;SDS011;54550;48.838;8.828;2023-02-18T15:00:26;3.33;;;1.93;;
67749;SDS011;54550;48.838;8.828;2023-02-18T15:02:57;3.00;;;1.80;;
67749;SDS011;54550;48.838;8.828;2023-02-18T15:05:25;6.50;;;2.50;;
67749;SDS011;54550;48.838;8.828;2023-02-18T15:10:24;2.30;;;1.53;;
67749;SDS011;54550;48.838;8.828;2023-02-18T15:13:17;3.60;;;2.10;;
67749;SDS011;54550;48.838;8.828;2023-02-18T15:16:04;3.40;;;2.23;;
67749;SDS011;54550;48.838;8.828;2023-02-18T15:21:20;3.73;;;2.00;;
67749;SDS011;54550;48.838;8.828;2023-02-18T15:23:50;3.47;;;2.60;;
67749;SDS011;54550;48.838;8.828;2023-02-18T15:26:16;2.33;;;2.03;;
67749;SDS011;54550;48.838;8.828;2023-02-18T15:28:50;2.37;;;1.97;;
67749;SDS011;54550;48.838;8.828;2023-02-18T15:31:24;1.97;;;1.70;;
67749;SDS011;54550;48.838;8.828;2023-02-18T15:33:50;2.40;;;2.20;;
67749;SDS011;54550;48.838;8.828;2023-02-18T15:36:16;2.33;;;1.63;;
67749;SDS011;54550;48.838;8.828;2023-02-18T15:38:42;3.30;;;2.30;;
67749;SDS011;54550;48.838;8.828;2023-02-18T15:41:12;5.23;;;2.23;;
67749;SDS011;54550;48.838;8.828;2023-02-18T15:43:53;1.97;;;1.23;;
67749;SDS011;54550;48.838;8.828;2023-02-18T15:46:23;3.07;;;1.70;;
67749;SDS011;54550;48.838;8.828;2023-02-18T15:48:50;3.47;;;2.27;;
67749;SDS011;54550;48.838;8.828;2023-02-18T15:51:19;19.57;;;2.10;;
67749;SDS011;54550;48.838;8.828;2023-02-18T15:53:49;2.23;;;1.70;;
67749;SDS011;54550;48.838;8.828;2023-02-18T15:56:36;1.97;;;1.77;;
67749;SDS011;54550;48.838;8.828;2023-02-18T15:59:52;1.63;;;1.37;;
67749;SDS011;54550;48.838;8.828;2023-02-18T16:02:19;11.13;;;2.60;;
67749;SDS011;54550;48.838;8.828;2023-02-18T16:04:50;2.73;;;2.43;;
67749;SDS011;54550;48.838;8.828;2023-02-18T16:07:23;2.00;;;1.70;;
67749;SDS011;54550;48.838;8.828;2023-02-18T16:09:56;3.97;;;1.50;;
67749;SDS011;54550;48.838;8.828;2023-02-18T16:12:38;4.30;;;1.87;;
67749;SDS011;54550;48.838;8.828;2023-02-18T16:15:04;4.20;;;1.70;;
67749;SDS011;54550;48.838;8.828;2023-02-18T16:17:30;4.33;;;1.90;;
67749;SDS011;54550;48.838;8.828;2023-02-18T16:19:57;4.17;;;2.03;;
67749;SDS011;54550;48.838;8.828;2023-02-18T16:22:50;8.90;;;2.23;;
67749;SDS011;54550;48.838;8.828;2023-02-18T16:28:02;3.80;;;2.57;;
67749;SDS011;54550;48.838;8.828;2023-02-18T16:30:32;1.60;;;1.50;;
67749;SDS011;54550;48.838;8.828;2023-02-18T16:32:59;3.97;;;2.50;;
67749;SDS011;54550;48.838;8.828;2023-02-18T16:35:25;3.40;;;2.00;;
67749;SDS011;54550;48.838;8.828;2023-02-18T16:37:53;2.30;;;2.10;;
67749;SDS011;54550;48.838;8.828;2023-02-18T16:40:23;2.80;;;1.73;;
67749;SDS011;54550;48.838;8.828;2023-02-18T16:43:00;1.83;;;1.53;;
67749;SDS011;54550;48.838;8.828;2023-02-18T16:45:50;2.43;;;2.03;;
67749;SDS011;54550;48.838;8.828;2023-02-18T16:48:30;3.10;;;2.30;;
67749;SDS011;54550;48.838;8.828;2023-02-18T16:51:06;3.97;;;1.70;;
67749;SDS011;54550;48.838;8.828;2023-02-18T16:53:46;2.60;;;2.00;;
67749;SDS011;54550;48.838;8.828;2023-02-18T16:56:13;2.37;;;2.13;;
67749;SDS011;54550;48.838;8.828;2023-02-18T16:58:40;2.67;;;2.37;;
67749;SDS011;54550;48.838;8.828;2023-02-18T17:01:19;3.10;;;2.50;;
67749;SDS011;54550;48.838;8.828;2023-02-18T17:03:51;2.13;;;1.90;;
67749;SDS011;54550;48.838;8.828;2023-02-18T17:06:17;2.03;;;1.83;;
67749;SDS011;54550;48.838;8.828;2023-02-18T17:08:43;3.00;;;1.70;;
67749;SDS011;54550;48.838;8.828;2023-02-18T17:11:13;3.63;;;1.80;;
67749;SDS011;54550;48.838;8.828;2023-02-18T17:13:45;4.33;;;2.60;;
67749;SDS011;54550;48.838;8.828;2023-02-18T17:16:12;3.30;;;2.77;;
67749;SDS011;54550;48.838;8.828;2023-02-18T17:18:38;4.20;;;3.20;;
67749;SDS011;54550;48.838;8.828;2023-02-18T17:21:04;4.50;;;2.67;;
67749;SDS011;54550;48.838;8.828;2023-02-18T17:23:30;3.23;;;2.23;;
67749;SDS011;54550;48.838;8.828;2023-02-18T17:25:56;2.57;;;1.57;;
67749;SDS011;54550;48.838;8.828;2023-02-18T17:28:21;1.60;;;1.50;;